sensor_id;sensor_type;location;lat;lon;timestamp;temperature;humidity
11132;DHT22;5620;53.570;9.718;2023-04-08T00:01:06;8.60;99.90
11132;DHT22;5620;53.570;9.718;2023-04-08T00:03:34;8.60;99.90
11132;DHT22;5620;53.570;9.718;2023-04-08T00:06:01;8.60;99.90
11132;DHT22;5620;53.570;9.718;2023-04-08T00:08:28;8.60;99.90
11132;DHT22;5620;53.570;9.718;2023-04-08T00:10:54;8.60;99.90
11132;DHT22;5620;53.570;9.718;2023-04-08T00:13:22;8.60;99.90
11132;DHT22;5620;53.570;9.718;2023-04-08T00:15:49;8.60;99.90
11132;DHT22;5620;53.570;9.718;2023-04-08T00:18:16;8.60;99.90
11132;DHT22;5620;53.570;9.718;2023-04-08T00:20:44;8.60;99.90
11132;DHT22;5620;53.570;9.718;2023-04-08T00:23:11;8.50;99.90
11132;DHT22;5620;53.570;9.718;2023-04-08T00:25:38;8.50;99.90
11132;DHT22;5620;53.570;9.718;2023-04-08T00:28:05;8.50;99.90
11132;DHT22;5620;53.570;9.718;2023-04-08T00:30:33;8.50;99.90
11132;DHT22;5620;53.570;9.718;2023-04-08T00:33:02;8.50;99.90
11132;DHT22;5620;53.570;9.718;2023-04-08T00:35:29;8.50;99.90
11132;DHT22;5620;53.570;9.718;2023-04-08T00:37:56;8.50;99.90
11132;DHT22;5620;53.570;9.718;2023-04-08T00:40:23;8.50;99.90
11132;DHT22;5620;53.570;9.718;2023-04-08T00:42:51;8.50;99.90
11132;DHT22;5620;53.570;9.718;2023-04-08T00:45:18;8.50;99.90
11132;DHT22;5620;53.570;9.718;2023-04-08T00:47:44;8.60;99.90
11132;DHT22;5620;53.570;9.718;2023-04-08T00:50:13;8.60;99.90
11132;DHT22;5620;53.570;9.718;2023-04-08T00:52:39;8.60;99.90
11132;DHT22;5620;53.570;9.718;2023-04-08T00:55:06;8.60;99.90
11132;DHT22;5620;53.570;9.718;2023-04-08T00:57:35;8.60;99.90
11132;DHT22;5620;53.570;9.718;2023-04-08T01:00:03;8.60;99.90
11132;DHT22;5620;53.570;9.718;2023-04-08T01:08:23;8.70;99.90
11132;DHT22;5620;53.570;9.718;2023-04-08T01:11:13;8.70;99.90
11132;DHT22;5620;53.570;9.718;2023-04-08T01:13:42;8.60;99.90
11132;DHT22;5620;53.570;9.718;2023-04-08T01:16:13;8.60;99.90
11132;DHT22;5620;53.570;9.718;2023-04-08T01:18:44;8.70;99.90
11132;DHT22;5620;53.570;9.718;2023-04-08T01:21:12;8.70;99.90
11132;DHT22;5620;53.570;9.718;2023-04-08T01:23:53;8.70;99.90
11132;DHT22;5620;53.570;9.718;2023-04-08T01:26:24;8.80;99.90
11132;DHT22;5620;53.570;9.718;2023-04-08T01:28:52;8.80;99.90
11132;DHT22;5620;53.570;9.718;2023-04-08T01:31:21;8.80;99.90
11132;DHT22;5620;53.570;9.718;2023-04-08T01:33:52;8.80;99.90
11132;DHT22;5620;53.570;9.718;2023-04-08T01:36:21;8.80;99.90
11132;DHT22;5620;53.570;9.718;2023-04-08T01:38:49;8.70;99.90
11132;DHT22;5620;53.570;9.718;2023-04-08T01:41:18;8.70;99.90
11132;DHT22;5620;53.570;9.718;2023-04-08T01:43:48;8.70;99.90
11132;DHT22;5620;53.570;9.718;2023-04-08T01:46:17;8.70;99.90
11132;DHT22;5620;53.570;9.718;2023-04-08T01:48:47;8.80;99.90
11132;DHT22;5620;53.570;9.718;2023-04-08T01:51:16;8.80;99.90
11132;DHT22;5620;53.570;9.718;2023-04-08T01:53:44;8.80;99.90
11132;DHT22;5620;53.570;9.718;2023-04-08T01:56:12;8.80;99.90
11132;DHT22;5620;53.570;9.718;2023-04-08T01:58:45;8.80;99.90
11132;DHT22;5620;53.570;9.718;2023-04-08T02:01:21;8.80;99.90
11132;DHT22;5620;53.570;9.718;2023-04-08T02:03:50;8.80;99.90
11132;DHT22;5620;53.570;9.718;2023-04-08T02:06:18;8.80;99.90
11132;DHT22;5620;53.570;9.718;2023-04-08T02:08:45;8.70;99.90
11132;DHT22;5620;53.570;9.718;2023-04-08T02:11:12;8.80;99.90
11132;DHT22;5620;53.570;9.718;2023-04-08T02:13:43;8.80;99.90
11132;DHT22;5620;53.570;9.718;2023-04-08T02:16:23;8.80;99.90
11132;DHT22;5620;53.570;9.718;2023-04-08T02:18:59;8.80;99.90
11132;DHT22;5620;53.570;9.718;2023-04-08T02:21:32;8.80;99.90
11132;DHT22;5620;53.570;9.718;2023-04-08T02:24:04;8.70;99.90
11132;DHT22;5620;53.570;9.718;2023-04-08T02:26:38;8.60;99.90
11132;DHT22;5620;53.570;9.718;2023-04-08T02:29:04;8.60;99.90
11132;DHT22;5620;53.570;9.718;2023-04-08T02:31:35;8.60;99.90
11132;DHT22;5620;53.570;9.718;2023-04-08T02:34:07;8.60;99.90
11132;DHT22;5620;53.570;9.718;2023-04-08T02:36:35;8.50;99.90
11132;DHT22;5620;53.570;9.718;2023-04-08T02:39:03;8.50;99.90
11132;DHT22;5620;53.570;9.718;2023-04-08T02:41:30;8.50;99.90
11132;DHT22;5620;53.570;9.718;2023-04-08T02:43:57;8.50;99.90
11132;DHT22;5620;53.570;9.718;2023-04-08T02:46:24;8.60;99.90
11132;DHT22;5620;53.570;9.718;2023-04-08T02:48:52;8.60;99.90
11132;DHT22;5620;53.570;9.718;2023-04-08T02:51:19;8.60;99.90
11132;DHT22;5620;53.570;9.718;2023-04-08T02:53:46;8.60;99.90
11132;DHT22;5620;53.570;9.718;2023-04-08T02:56:14;8.60;99.90
11132;DHT22;5620;53.570;9.718;2023-04-08T02:58:41;8.60;99.90
11132;DHT22;5620;53.570;9.718;2023-04-08T03:01:08;8.50;99.90
11132;DHT22;5620;53.570;9.718;2023-04-08T03:03:38;8.50;99.90
11132;DHT22;5620;53.570;9.718;2023-04-08T03:06:06;8.40;1.00
11132;DHT22;5620;53.570;9.718;2023-04-08T03:08:34;8.40;1.00
11132;DHT22;5620;53.570;9.718;2023-04-08T03:11:00;8.40;1.00
11132;DHT22;5620;53.570;9.718;2023-04-08T03:13:28;8.40;1.00
11132;DHT22;5620;53.570;9.718;2023-04-08T03:15:53;8.40;1.00
11132;DHT22;5620;53.570;9.718;2023-04-08T03:18:20;8.40;1.00
11132;DHT22;5620;53.570;9.718;2023-04-08T03:20:46;8.40;1.00
11132;DHT22;5620;53.570;9.718;2023-04-08T03:23:11;8.40;1.00
11132;DHT22;5620;53.570;9.718;2023-04-08T03:25:38;8.40;1.00
11132;DHT22;5620;53.570;9.718;2023-04-08T03:28:06;8.50;1.00
11132;DHT22;5620;53.570;9.718;2023-04-08T03:30:34;8.50;1.00
11132;DHT22;5620;53.570;9.718;2023-04-08T03:33:01;8.60;1.00
11132;DHT22;5620;53.570;9.718;2023-04-08T03:35:29;8.60;1.00
11132;DHT22;5620;53.570;9.718;2023-04-08T03:37:57;8.50;1.00
11132;DHT22;5620;53.570;9.718;2023-04-08T03:40:26;8.50;1.00
11132;DHT22;5620;53.570;9.718;2023-04-08T03:42:53;8.50;1.00
11132;DHT22;5620;53.570;9.718;2023-04-08T03:45:20;8.40;1.00
11132;DHT22;5620;53.570;9.718;2023-04-08T03:47:48;8.40;1.00
11132;DHT22;5620;53.570;9.718;2023-04-08T03:50:15;8.30;1.00
11132;DHT22;5620;53.570;9.718;2023-04-08T03:52:42;8.30;1.00
11132;DHT22;5620;53.570;9.718;2023-04-08T03:55:09;8.30;1.00
11132;DHT22;5620;53.570;9.718;2023-04-08T03:57:35;8.40;1.00
11132;DHT22;5620;53.570;9.718;2023-04-08T04:00:06;8.40;1.00
11132;DHT22;5620;53.570;9.718;2023-04-08T04:02:34;8.40;1.00
11132;DHT22;5620;53.570;9.718;2023-04-08T04:05:01;8.40;1.00
11132;DHT22;5620;53.570;9.718;2023-04-08T04:07:27;8.40;1.00
11132;DHT22;5620;53.570;9.718;2023-04-08T04:09:54;8.40;1.00
11132;DHT22;5620;53.570;9.718;2023-04-08T04:12:21;8.40;1.00
11132;DHT22;5620;53.570;9.718;2023-04-08T04:14:48;8.40;1.00
11132;DHT22;5620;53.570;9.718;2023-04-08T04:17:14;8.30;1.00
11132;DHT22;5620;53.570;9.718;2023-04-08T04:19:43;8.30;1.00
11132;DHT22;5620;53.570;9.718;2023-04-08T04:22:11;8.30;1.00
11132;DHT22;5620;53.570;9.718;2023-04-08T04:24:37;8.30;1.00
11132;DHT22;5620;53.570;9.718;2023-04-08T04:27:11;8.30;1.00
11132;DHT22;5620;53.570;9.718;2023-04-08T04:29:36;8.30;1.00
11132;DHT22;5620;53.570;9.718;2023-04-08T04:32:03;8.30;1.00
11132;DHT22;5620;53.570;9.718;2023-04-08T04:34:32;8.20;1.00
11132;DHT22;5620;53.570;9.718;2023-04-08T04:37:00;8.30;1.00
11132;DHT22;5620;53.570;9.718;2023-04-08T04:39:26;8.20;1.00
11132;DHT22;5620;53.570;9.718;2023-04-08T04:41:53;8.20;1.00
11132;DHT22;5620;53.570;9.718;2023-04-08T04:44:19;8.20;1.00
11132;DHT22;5620;53.570;9.718;2023-04-08T04:46:48;8.20;1.00
11132;DHT22;5620;53.570;9.718;2023-04-08T04:49:14;8.20;1.00
11132;DHT22;5620;53.570;9.718;2023-04-08T04:51:44;8.20;1.00
11132;DHT22;5620;53.570;9.718;2023-04-08T04:54:11;8.20;1.00
11132;DHT22;5620;53.570;9.718;2023-04-08T04:56:40;8.20;1.00
11132;DHT22;5620;53.570;9.718;2023-04-08T04:59:09;8.20;1.00
11132;DHT22;5620;53.570;9.718;2023-04-08T05:01:35;8.20;1.00
11132;DHT22;5620;53.570;9.718;2023-04-08T05:04:02;8.30;1.00
11132;DHT22;5620;53.570;9.718;2023-04-08T05:06:32;8.30;1.00
11132;DHT22;5620;53.570;9.718;2023-04-08T05:09:03;8.20;1.00
11132;DHT22;5620;53.570;9.718;2023-04-08T05:11:29;8.20;1.00
11132;DHT22;5620;53.570;9.718;2023-04-08T05:13:56;8.20;1.00
11132;DHT22;5620;53.570;9.718;2023-04-08T05:16:23;8.20;1.00
11132;DHT22;5620;53.570;9.718;2023-04-08T05:18:49;8.20;1.00
11132;DHT22;5620;53.570;9.718;2023-04-08T05:21:17;8.10;1.00
11132;DHT22;5620;53.570;9.718;2023-04-08T05:23:45;8.10;1.00
11132;DHT22;5620;53.570;9.718;2023-04-08T05:26:13;8.20;1.00
11132;DHT22;5620;53.570;9.718;2023-04-08T05:28:40;8.20;1.00
11132;DHT22;5620;53.570;9.718;2023-04-08T05:31:08;8.30;1.00
11132;DHT22;5620;53.570;9.718;2023-04-08T05:33:35;8.30;1.00
11132;DHT22;5620;53.570;9.718;2023-04-08T05:36:02;8.30;1.00
11132;DHT22;5620;53.570;9.718;2023-04-08T05:38:30;8.30;1.00
11132;DHT22;5620;53.570;9.718;2023-04-08T05:40:56;8.20;1.00
11132;DHT22;5620;53.570;9.718;2023-04-08T05:43:23;8.20;1.00
11132;DHT22;5620;53.570;9.718;2023-04-08T05:45:51;8.20;1.00
11132;DHT22;5620;53.570;9.718;2023-04-08T05:48:19;8.30;1.00
11132;DHT22;5620;53.570;9.718;2023-04-08T05:50:47;8.40;1.00
11132;DHT22;5620;53.570;9.718;2023-04-08T05:53:15;8.30;1.00
11132;DHT22;5620;53.570;9.718;2023-04-08T05:55:42;8.40;1.00
11132;DHT22;5620;53.570;9.718;2023-04-08T05:58:08;8.40;1.00
11132;DHT22;5620;53.570;9.718;2023-04-08T06:00:35;8.50;1.00
11132;DHT22;5620;53.570;9.718;2023-04-08T06:03:02;8.60;1.00
11132;DHT22;5620;53.570;9.718;2023-04-08T06:05:31;8.50;1.00
11132;DHT22;5620;53.570;9.718;2023-04-08T06:07:59;8.50;1.00
11132;DHT22;5620;53.570;9.718;2023-04-08T06:10:25;8.60;1.00
11132;DHT22;5620;53.570;9.718;2023-04-08T06:12:52;8.50;1.00
11132;DHT22;5620;53.570;9.718;2023-04-08T06:15:20;8.50;1.00
11132;DHT22;5620;53.570;9.718;2023-04-08T06:17:47;8.60;1.00
11132;DHT22;5620;53.570;9.718;2023-04-08T06:20:13;8.60;1.00
11132;DHT22;5620;53.570;9.718;2023-04-08T06:22:40;8.60;1.00
11132;DHT22;5620;53.570;9.718;2023-04-08T06:25:07;8.60;1.00
11132;DHT22;5620;53.570;9.718;2023-04-08T06:27:34;8.70;1.00
11132;DHT22;5620;53.570;9.718;2023-04-08T06:30:00;8.70;1.00
11132;DHT22;5620;53.570;9.718;2023-04-08T06:32:26;8.70;1.00
11132;DHT22;5620;53.570;9.718;2023-04-08T06:34:53;8.80;1.00
11132;DHT22;5620;53.570;9.718;2023-04-08T06:37:21;8.80;1.00
11132;DHT22;5620;53.570;9.718;2023-04-08T06:39:48;8.80;1.00
11132;DHT22;5620;53.570;9.718;2023-04-08T06:42:15;8.90;1.00
11132;DHT22;5620;53.570;9.718;2023-04-08T06:44:42;9.00;1.00
11132;DHT22;5620;53.570;9.718;2023-04-08T06:47:10;8.90;1.00
11132;DHT22;5620;53.570;9.718;2023-04-08T06:49:38;8.90;1.00
11132;DHT22;5620;53.570;9.718;2023-04-08T06:52:06;9.10;1.00
11132;DHT22;5620;53.570;9.718;2023-04-08T06:54:33;9.20;1.00
11132;DHT22;5620;53.570;9.718;2023-04-08T06:57:00;9.40;1.00
11132;DHT22;5620;53.570;9.718;2023-04-08T06:59:28;9.50;1.00
11132;DHT22;5620;53.570;9.718;2023-04-08T07:01:55;9.60;1.00
11132;DHT22;5620;53.570;9.718;2023-04-08T07:04:20;9.60;1.00
11132;DHT22;5620;53.570;9.718;2023-04-08T07:06:48;9.60;1.00
11132;DHT22;5620;53.570;9.718;2023-04-08T07:09:14;9.60;1.00
11132;DHT22;5620;53.570;9.718;2023-04-08T07:11:41;9.60;1.00
11132;DHT22;5620;53.570;9.718;2023-04-08T07:14:10;9.70;1.00
11132;DHT22;5620;53.570;9.718;2023-04-08T07:16:41;9.70;1.00
11132;DHT22;5620;53.570;9.718;2023-04-08T07:19:08;9.80;1.00
11132;DHT22;5620;53.570;9.718;2023-04-08T07:21:35;9.90;1.00
11132;DHT22;5620;53.570;9.718;2023-04-08T07:24:00;10.00;1.00
11132;DHT22;5620;53.570;9.718;2023-04-08T07:26:27;10.00;1.00
11132;DHT22;5620;53.570;9.718;2023-04-08T07:28:54;10.00;1.00
11132;DHT22;5620;53.570;9.718;2023-04-08T07:31:21;10.00;1.00
11132;DHT22;5620;53.570;9.718;2023-04-08T07:33:48;10.10;1.00
11132;DHT22;5620;53.570;9.718;2023-04-08T07:36:15;10.40;1.00
11132;DHT22;5620;53.570;9.718;2023-04-08T07:38:42;10.40;1.00
11132;DHT22;5620;53.570;9.718;2023-04-08T07:41:09;10.30;1.00
11132;DHT22;5620;53.570;9.718;2023-04-08T07:43:38;10.40;1.00
11132;DHT22;5620;53.570;9.718;2023-04-08T07:46:04;10.60;1.00
11132;DHT22;5620;53.570;9.718;2023-04-08T07:48:30;10.80;1.00
11132;DHT22;5620;53.570;9.718;2023-04-08T07:51:07;10.90;1.00
11132;DHT22;5620;53.570;9.718;2023-04-08T07:53:35;11.10;1.00
11132;DHT22;5620;53.570;9.718;2023-04-08T07:56:01;11.40;1.00
11132;DHT22;5620;53.570;9.718;2023-04-08T07:58:28;11.40;1.00
11132;DHT22;5620;53.570;9.718;2023-04-08T08:00:53;11.50;1.00
11132;DHT22;5620;53.570;9.718;2023-04-08T08:03:20;11.60;1.00
11132;DHT22;5620;53.570;9.718;2023-04-08T08:05:47;11.50;1.00
11132;DHT22;5620;53.570;9.718;2023-04-08T08:08:15;11.50;1.00
11132;DHT22;5620;53.570;9.718;2023-04-08T08:10:43;11.60;1.00
11132;DHT22;5620;53.570;9.718;2023-04-08T08:13:10;11.50;1.00
11132;DHT22;5620;53.570;9.718;2023-04-08T08:15:39;11.30;1.00
11132;DHT22;5620;53.570;9.718;2023-04-08T08:18:06;11.20;1.00
11132;DHT22;5620;53.570;9.718;2023-04-08T08:20:34;11.20;1.00
11132;DHT22;5620;53.570;9.718;2023-04-08T08:23:03;11.10;1.00
11132;DHT22;5620;53.570;9.718;2023-04-08T08:25:29;10.90;1.00
11132;DHT22;5620;53.570;9.718;2023-04-08T08:27:57;10.80;1.00
11132;DHT22;5620;53.570;9.718;2023-04-08T08:30:22;10.70;1.00
11132;DHT22;5620;53.570;9.718;2023-04-08T08:32:48;10.70;1.00
11132;DHT22;5620;53.570;9.718;2023-04-08T08:35:16;10.80;1.00
11132;DHT22;5620;53.570;9.718;2023-04-08T08:37:42;10.90;1.00
11132;DHT22;5620;53.570;9.718;2023-04-08T08:40:10;10.90;1.00
11132;DHT22;5620;53.570;9.718;2023-04-08T08:42:38;10.80;1.00
11132;DHT22;5620;53.570;9.718;2023-04-08T08:45:08;10.80;1.00
11132;DHT22;5620;53.570;9.718;2023-04-08T08:47:37;10.80;99.90
11132;DHT22;5620;53.570;9.718;2023-04-08T08:50:04;10.90;99.90
11132;DHT22;5620;53.570;9.718;2023-04-08T08:52:33;11.10;99.90
11132;DHT22;5620;53.570;9.718;2023-04-08T08:55:01;11.30;99.90
11132;DHT22;5620;53.570;9.718;2023-04-08T08:57:28;11.50;99.90
11132;DHT22;5620;53.570;9.718;2023-04-08T08:59:54;11.60;99.90
11132;DHT22;5620;53.570;9.718;2023-04-08T09:02:26;11.80;99.90
11132;DHT22;5620;53.570;9.718;2023-04-08T09:05:02;11.90;99.90
11132;DHT22;5620;53.570;9.718;2023-04-08T09:07:31;12.00;99.90
11132;DHT22;5620;53.570;9.718;2023-04-08T09:10:00;12.10;99.90
11132;DHT22;5620;53.570;9.718;2023-04-08T09:12:27;12.10;99.90
11132;DHT22;5620;53.570;9.718;2023-04-08T09:15:07;12.20;99.90
11132;DHT22;5620;53.570;9.718;2023-04-08T09:17:39;12.30;99.90
11132;DHT22;5620;53.570;9.718;2023-04-08T09:20:23;12.30;99.90
11132;DHT22;5620;53.570;9.718;2023-04-08T09:23:09;12.20;99.90
11132;DHT22;5620;53.570;9.718;2023-04-08T09:25:34;12.30;99.90
11132;DHT22;5620;53.570;9.718;2023-04-08T09:28:03;12.30;99.90
11132;DHT22;5620;53.570;9.718;2023-04-08T09:30:51;12.30;99.90
11132;DHT22;5620;53.570;9.718;2023-04-08T09:33:18;12.40;99.90
11132;DHT22;5620;53.570;9.718;2023-04-08T09:35:45;12.20;99.90
11132;DHT22;5620;53.570;9.718;2023-04-08T09:38:13;12.20;99.90
11132;DHT22;5620;53.570;9.718;2023-04-08T09:40:40;12.40;99.90
11132;DHT22;5620;53.570;9.718;2023-04-08T09:43:10;12.70;99.90
11132;DHT22;5620;53.570;9.718;2023-04-08T09:45:38;13.10;99.90
11132;DHT22;5620;53.570;9.718;2023-04-08T09:48:11;13.40;99.90
11132;DHT22;5620;53.570;9.718;2023-04-08T09:50:50;13.60;99.90
11132;DHT22;5620;53.570;9.718;2023-04-08T09:53:33;13.70;99.90
11132;DHT22;5620;53.570;9.718;2023-04-08T09:56:01;13.70;99.90
11132;DHT22;5620;53.570;9.718;2023-04-08T09:58:50;13.80;99.90
11132;DHT22;5620;53.570;9.718;2023-04-08T10:01:23;13.90;99.90
11132;DHT22;5620;53.570;9.718;2023-04-08T10:03:54;14.20;99.90
11132;DHT22;5620;53.570;9.718;2023-04-08T10:06:23;14.20;99.90
11132;DHT22;5620;53.570;9.718;2023-04-08T10:08:58;14.10;99.90
11132;DHT22;5620;53.570;9.718;2023-04-08T10:11:32;14.20;99.90
11132;DHT22;5620;53.570;9.718;2023-04-08T10:14:00;14.20;99.90
11132;DHT22;5620;53.570;9.718;2023-04-08T10:16:28;14.30;99.90
11132;DHT22;5620;53.570;9.718;2023-04-08T10:18:58;14.30;99.90
11132;DHT22;5620;53.570;9.718;2023-04-08T10:21:41;14.40;99.90
11132;DHT22;5620;53.570;9.718;2023-04-08T10:24:09;14.50;99.90
11132;DHT22;5620;53.570;9.718;2023-04-08T10:26:44;14.60;99.90
11132;DHT22;5620;53.570;9.718;2023-04-08T10:32:28;14.90;99.90
11132;DHT22;5620;53.570;9.718;2023-04-08T10:34:56;15.20;99.90
11132;DHT22;5620;53.570;9.718;2023-04-08T10:37:24;15.50;99.90
11132;DHT22;5620;53.570;9.718;2023-04-08T10:39:54;15.50;99.90
11132;DHT22;5620;53.570;9.718;2023-04-08T10:42:28;15.50;99.90
11132;DHT22;5620;53.570;9.718;2023-04-08T10:45:00;15.30;99.90
11132;DHT22;5620;53.570;9.718;2023-04-08T10:47:28;15.20;99.90
11132;DHT22;5620;53.570;9.718;2023-04-08T10:49:56;15.20;99.90
11132;DHT22;5620;53.570;9.718;2023-04-08T10:52:24;15.30;99.90
11132;DHT22;5620;53.570;9.718;2023-04-08T10:54:54;15.20;99.90
11132;DHT22;5620;53.570;9.718;2023-04-08T10:57:25;15.20;99.90
11132;DHT22;5620;53.570;9.718;2023-04-08T10:59:51;15.20;99.90
11132;DHT22;5620;53.570;9.718;2023-04-08T11:02:20;15.00;99.90
11132;DHT22;5620;53.570;9.718;2023-04-08T11:04:46;14.80;99.90
11132;DHT22;5620;53.570;9.718;2023-04-08T11:07:14;14.60;99.90
11132;DHT22;5620;53.570;9.718;2023-04-08T11:09:42;14.50;99.90
11132;DHT22;5620;53.570;9.718;2023-04-08T11:12:10;14.50;99.90
11132;DHT22;5620;53.570;9.718;2023-04-08T11:14:47;14.30;99.90
11132;DHT22;5620;53.570;9.718;2023-04-08T11:17:14;14.30;99.90
11132;DHT22;5620;53.570;9.718;2023-04-08T11:19:41;14.50;99.90
11132;DHT22;5620;53.570;9.718;2023-04-08T11:22:08;14.60;99.90
11132;DHT22;5620;53.570;9.718;2023-04-08T11:24:37;14.50;99.90
11132;DHT22;5620;53.570;9.718;2023-04-08T11:27:05;14.40;99.90
11132;DHT22;5620;53.570;9.718;2023-04-08T11:29:34;14.30;99.90
11132;DHT22;5620;53.570;9.718;2023-04-08T11:32:03;14.10;99.90
11132;DHT22;5620;53.570;9.718;2023-04-08T11:34:31;14.10;99.90
11132;DHT22;5620;53.570;9.718;2023-04-08T11:36:57;14.20;99.90
11132;DHT22;5620;53.570;9.718;2023-04-08T11:39:24;14.30;99.90
11132;DHT22;5620;53.570;9.718;2023-04-08T11:41:50;14.30;99.90
11132;DHT22;5620;53.570;9.718;2023-04-08T11:44:18;14.10;99.90
11132;DHT22;5620;53.570;9.718;2023-04-08T11:46:55;13.90;99.90
11132;DHT22;5620;53.570;9.718;2023-04-08T11:49:21;13.90;99.90
11132;DHT22;5620;53.570;9.718;2023-04-08T11:51:58;13.80;99.90
11132;DHT22;5620;53.570;9.718;2023-04-08T11:54:30;13.80;99.90
11132;DHT22;5620;53.570;9.718;2023-04-08T11:56:56;13.60;99.90
11132;DHT22;5620;53.570;9.718;2023-04-08T11:59:24;13.50;99.90
11132;DHT22;5620;53.570;9.718;2023-04-08T12:01:51;13.60;99.90
11132;DHT22;5620;53.570;9.718;2023-04-08T12:04:18;13.50;99.90
11132;DHT22;5620;53.570;9.718;2023-04-08T12:06:45;13.60;99.90
11132;DHT22;5620;53.570;9.718;2023-04-08T12:09:13;13.90;99.90
11132;DHT22;5620;53.570;9.718;2023-04-08T12:11:40;14.30;99.90
11132;DHT22;5620;53.570;9.718;2023-04-08T12:14:08;14.60;99.90
11132;DHT22;5620;53.570;9.718;2023-04-08T12:16:35;14.70;99.90
11132;DHT22;5620;53.570;9.718;2023-04-08T12:19:02;14.80;99.90
11132;DHT22;5620;53.570;9.718;2023-04-08T12:21:29;15.00;99.90
11132;DHT22;5620;53.570;9.718;2023-04-08T12:23:56;15.00;99.90
11132;DHT22;5620;53.570;9.718;2023-04-08T12:26:21;14.80;99.90
11132;DHT22;5620;53.570;9.718;2023-04-08T12:28:50;14.60;99.90
11132;DHT22;5620;53.570;9.718;2023-04-08T12:31:16;14.30;99.90
11132;DHT22;5620;53.570;9.718;2023-04-08T12:33:44;14.30;99.90
11132;DHT22;5620;53.570;9.718;2023-04-08T12:36:11;14.30;99.90
11132;DHT22;5620;53.570;9.718;2023-04-08T12:38:39;14.30;99.90
11132;DHT22;5620;53.570;9.718;2023-04-08T12:41:04;14.10;99.90
11132;DHT22;5620;53.570;9.718;2023-04-08T12:43:31;14.10;99.90
11132;DHT22;5620;53.570;9.718;2023-04-08T12:45:58;14.10;99.90
11132;DHT22;5620;53.570;9.718;2023-04-08T12:48:26;14.20;99.90
11132;DHT22;5620;53.570;9.718;2023-04-08T12:50:55;14.20;99.90
11132;DHT22;5620;53.570;9.718;2023-04-08T12:53:23;14.00;99.90
11132;DHT22;5620;53.570;9.718;2023-04-08T12:55:49;14.00;99.90
11132;DHT22;5620;53.570;9.718;2023-04-08T12:58:15;14.10;99.90
11132;DHT22;5620;53.570;9.718;2023-04-08T13:00:41;14.00;99.90
11132;DHT22;5620;53.570;9.718;2023-04-08T13:03:10;14.00;99.90
11132;DHT22;5620;53.570;9.718;2023-04-08T13:05:35;14.00;99.90
11132;DHT22;5620;53.570;9.718;2023-04-08T13:08:01;14.10;99.90
11132;DHT22;5620;53.570;9.718;2023-04-08T13:10:27;14.10;99.90
11132;DHT22;5620;53.570;9.718;2023-04-08T13:12:54;14.10;99.90
11132;DHT22;5620;53.570;9.718;2023-04-08T13:15:22;14.20;99.90
11132;DHT22;5620;53.570;9.718;2023-04-08T13:17:50;14.30;99.90
11132;DHT22;5620;53.570;9.718;2023-04-08T13:20:18;14.30;99.90
11132;DHT22;5620;53.570;9.718;2023-04-08T13:22:45;14.20;99.90
11132;DHT22;5620;53.570;9.718;2023-04-08T13:25:12;14.30;99.90
11132;DHT22;5620;53.570;9.718;2023-04-08T13:27:38;14.40;99.90
11132;DHT22;5620;53.570;9.718;2023-04-08T13:30:05;14.40;99.90
11132;DHT22;5620;53.570;9.718;2023-04-08T13:32:35;14.40;99.90
11132;DHT22;5620;53.570;9.718;2023-04-08T13:35:02;14.30;99.90
11132;DHT22;5620;53.570;9.718;2023-04-08T13:37:31;14.30;99.90
11132;DHT22;5620;53.570;9.718;2023-04-08T13:39:59;14.20;99.90
11132;DHT22;5620;53.570;9.718;2023-04-08T13:42:25;13.90;99.90
11132;DHT22;5620;53.570;9.718;2023-04-08T13:44:51;13.70;99.90
11132;DHT22;5620;53.570;9.718;2023-04-08T13:47:19;13.60;99.90
11132;DHT22;5620;53.570;9.718;2023-04-08T13:49:46;13.60;99.90
11132;DHT22;5620;53.570;9.718;2023-04-08T13:52:12;13.50;99.90
11132;DHT22;5620;53.570;9.718;2023-04-08T13:54:39;13.40;99.90
11132;DHT22;5620;53.570;9.718;2023-04-08T13:57:06;13.40;99.90
11132;DHT22;5620;53.570;9.718;2023-04-08T13:59:34;13.40;99.90
11132;DHT22;5620;53.570;9.718;2023-04-08T14:02:00;13.30;99.90
11132;DHT22;5620;53.570;9.718;2023-04-08T14:04:26;13.20;99.90
11132;DHT22;5620;53.570;9.718;2023-04-08T14:06:53;13.00;99.90
11132;DHT22;5620;53.570;9.718;2023-04-08T14:09:22;13.00;99.90
11132;DHT22;5620;53.570;9.718;2023-04-08T14:11:48;13.00;99.90
11132;DHT22;5620;53.570;9.718;2023-04-08T14:14:15;13.00;99.90
11132;DHT22;5620;53.570;9.718;2023-04-08T14:16:43;13.00;99.90
11132;DHT22;5620;53.570;9.718;2023-04-08T14:19:10;13.10;99.90
11132;DHT22;5620;53.570;9.718;2023-04-08T14:21:36;13.00;99.90
11132;DHT22;5620;53.570;9.718;2023-04-08T14:24:02;13.00;99.90
11132;DHT22;5620;53.570;9.718;2023-04-08T14:26:29;13.00;99.90
11132;DHT22;5620;53.570;9.718;2023-04-08T14:28:54;12.90;99.90
11132;DHT22;5620;53.570;9.718;2023-04-08T14:31:21;12.90;99.90
11132;DHT22;5620;53.570;9.718;2023-04-08T14:33:49;12.90;99.90
11132;DHT22;5620;53.570;9.718;2023-04-08T14:36:16;12.80;99.90
11132;DHT22;5620;53.570;9.718;2023-04-08T14:38:44;12.70;99.90
11132;DHT22;5620;53.570;9.718;2023-04-08T14:41:10;12.70;99.90
11132;DHT22;5620;53.570;9.718;2023-04-08T14:43:36;12.70;99.90
11132;DHT22;5620;53.570;9.718;2023-04-08T14:46:02;12.70;99.90
11132;DHT22;5620;53.570;9.718;2023-04-08T14:48:30;12.70;99.90
11132;DHT22;5620;53.570;9.718;2023-04-08T14:50:56;12.70;99.90
11132;DHT22;5620;53.570;9.718;2023-04-08T14:53:24;12.60;99.90
11132;DHT22;5620;53.570;9.718;2023-04-08T14:55:51;12.60;99.90
11132;DHT22;5620;53.570;9.718;2023-04-08T14:58:17;12.60;99.90
11132;DHT22;5620;53.570;9.718;2023-04-08T15:00:43;12.50;99.90
11132;DHT22;5620;53.570;9.718;2023-04-08T15:03:09;12.60;99.90
11132;DHT22;5620;53.570;9.718;2023-04-08T15:05:36;12.60;99.90
11132;DHT22;5620;53.570;9.718;2023-04-08T15:08:01;12.50;99.90
11132;DHT22;5620;53.570;9.718;2023-04-08T15:10:33;12.50;99.90
11132;DHT22;5620;53.570;9.718;2023-04-08T15:12:59;12.40;99.90
11132;DHT22;5620;53.570;9.718;2023-04-08T15:15:26;12.40;99.90
11132;DHT22;5620;53.570;9.718;2023-04-08T15:17:53;12.30;99.90
11132;DHT22;5620;53.570;9.718;2023-04-08T15:20:21;12.30;99.90
11132;DHT22;5620;53.570;9.718;2023-04-08T15:22:49;12.30;99.90
11132;DHT22;5620;53.570;9.718;2023-04-08T15:25:14;12.40;99.90
11132;DHT22;5620;53.570;9.718;2023-04-08T15:27:42;12.40;99.90
11132;DHT22;5620;53.570;9.718;2023-04-08T15:30:08;12.30;99.90
11132;DHT22;5620;53.570;9.718;2023-04-08T15:32:35;12.10;99.90
11132;DHT22;5620;53.570;9.718;2023-04-08T15:35:11;12.00;99.90
11132;DHT22;5620;53.570;9.718;2023-04-08T15:37:37;12.20;99.90
11132;DHT22;5620;53.570;9.718;2023-04-08T15:40:04;12.30;99.90
11132;DHT22;5620;53.570;9.718;2023-04-08T15:42:31;12.30;99.90
11132;DHT22;5620;53.570;9.718;2023-04-08T15:44:58;12.10;99.90
11132;DHT22;5620;53.570;9.718;2023-04-08T15:47:25;11.90;99.90
11132;DHT22;5620;53.570;9.718;2023-04-08T15:49:53;11.70;99.90
11132;DHT22;5620;53.570;9.718;2023-04-08T15:52:20;11.60;99.90
11132;DHT22;5620;53.570;9.718;2023-04-08T15:54:47;11.60;99.90
11132;DHT22;5620;53.570;9.718;2023-04-08T15:57:15;11.60;99.90
11132;DHT22;5620;53.570;9.718;2023-04-08T15:59:41;11.60;99.90
11132;DHT22;5620;53.570;9.718;2023-04-08T16:02:09;11.60;99.90
11132;DHT22;5620;53.570;9.718;2023-04-08T16:04:36;11.60;99.90
11132;DHT22;5620;53.570;9.718;2023-04-08T16:07:02;11.70;99.90
11132;DHT22;5620;53.570;9.718;2023-04-08T16:09:31;11.80;99.90
11132;DHT22;5620;53.570;9.718;2023-04-08T16:11:58;11.70;99.90
11132;DHT22;5620;53.570;9.718;2023-04-08T16:14:24;11.50;99.90